createdAt,value
2022-08-09T00:00:28.562Z,79.73
2022-08-09T00:01:40.304Z,79.73
2022-08-09T00:02:28.515Z,79.93
2022-08-09T00:04:00.859Z,80.34
2022-08-09T00:04:35.068Z,80.44
2022-08-09T00:06:15.659Z,80.74
2022-08-09T00:06:28.471Z,80.24
2022-08-09T00:07:29.826Z,80.34
2022-08-09T00:08:32.058Z,80.24
2022-08-09T00:09:27.445Z,80.47
2022-08-09T00:10:27.449Z,80.18
2022-08-09T00:11:27.837Z,80.18
2022-08-09T00:12:29.840Z,80.58
2022-08-09T00:13:28.397Z,81.18
2022-08-09T00:14:36.364Z,80.58
2022-08-09T00:15:35.609Z,81.39
2022-08-09T00:16:38.389Z,81.39
2022-08-09T00:18:10.937Z,81.59
2022-08-09T00:18:28.972Z,81.69
2022-08-09T00:19:27.686Z,81.69
2022-08-09T00:20:27.337Z,82.81
2022-08-09T00:21:27.310Z,82.24
2022-08-09T00:22:35.103Z,82.75
2022-08-09T00:23:57.792Z,82.54
2022-08-09T00:24:28.270Z,83.25
2022-08-09T00:25:32.998Z,83.15
2022-08-09T00:26:29.837Z,83.15
2022-08-09T00:27:27.741Z,83.04
2022-08-09T00:28:28.226Z,83.65
2022-08-09T00:29:39.613Z,83.55
2022-08-09T00:30:28.224Z,83.55
2022-08-09T00:31:56.884Z,83.55
2022-08-09T00:32:28.182Z,83.35
2022-08-09T00:33:32.622Z,83.49
2022-08-09T00:34:28.160Z,83.55
2022-08-09T00:35:29.674Z,83.59
2022-08-09T00:36:30.630Z,83.49
2022-08-09T00:37:27.136Z,83.39
2022-08-09T00:38:28.116Z,83.29
2022-08-09T00:40:13.899Z,83.80
2022-08-09T00:40:30.953Z,83.69
2022-08-09T00:44:10.713Z,83.90
2022-08-09T00:44:10.787Z,83.90
2022-08-09T00:44:14.160Z,83.90
2022-08-09T00:44:28.733Z,84.30
2022-08-09T00:45:27.044Z,84.30
2022-08-09T00:46:55.515Z,84.20
2022-08-09T00:47:28.018Z,84.41
2022-08-09T00:48:28.004Z,84.44
2022-08-09T00:49:28.129Z,84.64
2022-08-09T00:50:27.287Z,84.55
2022-08-09T00:51:26.994Z,84.14
2022-08-09T00:52:30.192Z,84.55
2022-08-09T00:53:26.952Z,84.44
2022-08-09T00:54:34.920Z,84.24
2022-08-09T00:56:03.969Z,84.34
2022-08-09T00:56:27.916Z,84.75
2022-08-09T00:57:34.007Z,84.95
2022-08-09T00:58:27.933Z,84.55
2022-08-09T00:59:40.401Z,84.44
2022-08-09T01:00:27.877Z,84.04
2022-08-09T01:01:32.184Z,84.64
2022-08-09T01:02:27.878Z,84.64
2022-08-09T01:03:28.327Z,85.30
2022-08-09T01:04:27.470Z,85.36
2022-08-09T01:05:53.272Z,85.46
2022-08-09T01:06:53.449Z,84.64
2022-08-09T01:07:37.899Z,84.48
2022-08-09T01:08:27.782Z,84.78
2022-08-09T01:09:26.773Z,85.50
2022-08-09T01:10:29.012Z,85.50
2022-08-09T01:11:26.749Z,85.50
2022-08-09T01:12:26.762Z,85.50
2022-08-09T01:13:31.197Z,85.09
2022-08-09T01:14:27.716Z,85.30
2022-08-09T01:15:26.704Z,85.44
2022-08-09T01:16:26.697Z,85.24
2022-08-09T01:17:30.521Z,85.64
2022-08-09T01:18:30.014Z,85.74
2022-08-09T01:19:42.999Z,85.64
2022-08-09T01:20:27.669Z,85.53
2022-08-09T01:21:26.657Z,85.13
2022-08-09T01:22:27.626Z,85.24
2022-08-09T01:24:00.681Z,85.13
2022-08-09T01:24:27.603Z,85.33
2022-08-09T01:25:26.592Z,85.74
2022-08-09T01:26:26.604Z,85.33
2022-08-09T01:27:26.573Z,85.24
2022-08-09T01:28:26.560Z,85.53
2022-08-09T01:29:28.123Z,85.44
2022-08-09T01:30:33.590Z,85.38
2022-08-09T01:32:29.167Z,86.29
2022-08-09T01:32:31.750Z,86.35
2022-08-09T01:33:27.500Z,86.90
2022-08-09T01:34:26.493Z,85.98
2022-08-09T01:35:37.463Z,86.80
2022-08-09T01:36:27.467Z,86.69
2022-08-09T01:38:06.427Z,86.69
2022-08-09T01:38:27.473Z,86.59
2022-08-09T01:39:26.491Z,86.80
2022-08-09T01:40:28.612Z,86.49
2022-08-09T01:41:26.419Z,86.69
2022-08-09T01:42:26.402Z,87.45
2022-08-09T01:43:26.426Z,87.20
2022-08-09T01:44:26.378Z,87.51
2022-08-09T01:45:26.371Z,87.92
2022-08-09T01:46:27.086Z,87.65
2022-08-09T01:47:26.351Z,87.30
2022-08-09T01:48:29.769Z,87.10
2022-08-09T01:49:26.325Z,86.80
2022-08-09T01:50:30.045Z,87.00
2022-08-09T01:51:27.306Z,87.40
2022-08-09T01:52:27.288Z,87.61
2022-08-09T01:53:29.347Z,87.55
2022-08-09T01:54:27.515Z,87.45
2022-08-09T01:55:26.259Z,87.75
2022-08-09T01:56:26.269Z,87.75
2022-08-09T01:57:26.234Z,87.75
2022-08-09T01:58:26.222Z,87.65
2022-08-09T01:59:26.234Z,87.45
2022-08-09T02:00:35.819Z,87.45
2022-08-09T02:01:30.510Z,87.75
2022-08-09T02:02:29.953Z,87.75
2022-08-09T02:03:26.168Z,87.65
2022-08-09T02:04:26.178Z,87.65
2022-08-09T02:05:37.781Z,87.75
2022-08-09T02:06:27.132Z,87.34
2022-08-09T02:08:39.897Z,87.85
2022-08-09T02:08:41.354Z,87.34
2022-08-09T02:09:27.100Z,87.95
2022-08-09T02:10:29.875Z,87.89
2022-08-09T02:11:42.622Z,87.99
2022-08-09T02:12:27.130Z,87.34
2022-08-09T02:13:37.669Z,88.26
2022-08-09T02:14:27.548Z,87.55
2022-08-09T02:15:26.935Z,87.38
2022-08-09T02:16:33.857Z,88.16
2022-08-09T02:17:59.813Z,87.49
2022-08-09T02:18:26.997Z,87.59
2022-08-09T02:19:38.711Z,87.89
2022-08-09T02:20:32.769Z,87.89
2022-08-09T02:21:27.540Z,88.10
2022-08-09T02:22:31.703Z,87.79
2022-08-09T02:23:26.964Z,87.59
2022-08-09T02:24:26.991Z,87.99
2022-08-09T02:25:25.921Z,89.11
2022-08-09T02:26:27.287Z,88.40
2022-08-09T02:27:43.162Z,88.81
2022-08-09T02:28:26.911Z,88.71
2022-08-09T02:29:25.900Z,88.40
2022-08-09T02:30:26.351Z,88.40
2022-08-09T02:31:25.861Z,88.50
2022-08-09T02:32:25.864Z,88.50
2022-08-09T02:33:58.761Z,88.81
2022-08-09T02:34:40.542Z,88.65
2022-08-09T02:36:02.072Z,89.46
2022-08-09T02:36:26.795Z,89.26
2022-08-09T02:37:31.720Z,89.15
2022-08-09T02:38:28.845Z,89.26
2022-08-09T02:39:34.040Z,88.85
2022-08-09T02:40:30.357Z,89.15
2022-08-09T02:41:25.745Z,89.36
2022-08-09T02:42:25.752Z,88.75
2022-08-09T02:43:25.741Z,88.75
2022-08-09T02:44:30.250Z,89.15
2022-08-09T02:45:28.694Z,89.15
2022-08-09T02:46:25.697Z,89.15
2022-08-09T02:47:25.676Z,89.87
2022-08-09T02:48:30.825Z,89.56
2022-08-09T02:49:27.231Z,89.97
2022-08-09T02:50:26.993Z,89.76
2022-08-09T02:51:26.569Z,89.56
2022-08-09T02:52:25.620Z,89.76
2022-08-09T02:53:26.292Z,89.66
2022-08-09T02:54:25.595Z,89.76
2022-08-09T02:55:46.835Z,89.30
2022-08-09T02:56:27.941Z,89.50
2022-08-09T02:57:25.606Z,90.11
2022-08-09T02:58:35.827Z,90.01
2022-08-09T02:59:36.169Z,89.91
2022-08-09T03:00:26.551Z,90.37
2022-08-09T03:01:29.518Z,90.78
2022-08-09T03:02:26.526Z,90.52
2022-08-09T03:04:12.842Z,90.72
2022-08-09T03:04:29.557Z,90.62
2022-08-09T03:05:25.479Z,90.62
2022-08-09T03:06:27.493Z,90.62
2022-08-09T03:07:25.451Z,90.36
2022-08-09T03:08:25.441Z,91.38
2022-08-09T03:09:25.435Z,90.97
2022-08-09T03:10:26.416Z,91.07
2022-08-09T03:11:29.894Z,91.38
2022-08-09T03:12:26.397Z,91.07
2022-08-09T03:13:25.386Z,90.97
2022-08-09T03:14:28.256Z,91.07
2022-08-09T03:15:25.371Z,91.07
2022-08-09T03:16:26.348Z,91.17
2022-08-09T03:17:27.043Z,91.07
2022-08-09T03:18:31.083Z,91.07
2022-08-09T03:19:57.775Z,91.38
2022-08-09T03:20:26.302Z,91.17
2022-08-09T03:21:25.870Z,91.17
2022-08-09T03:22:30.926Z,91.38
2022-08-09T03:23:26.269Z,91.27
2022-08-09T03:24:25.305Z,91.38
2022-08-09T03:25:59.259Z,91.07
2022-08-09T03:26:31.930Z,91.07
2022-08-09T03:27:26.247Z,90.97
2022-08-09T03:28:25.216Z,90.97
2022-08-09T03:29:25.205Z,91.07
2022-08-09T03:30:29.991Z,91.27
2022-08-09T03:31:26.185Z,90.46
2022-08-09T03:32:25.325Z,91.07
2022-08-09T03:33:25.161Z,91.07
2022-08-09T03:34:25.151Z,91.27
2022-08-09T03:36:11.629Z,91.38
2022-08-09T03:36:27.564Z,91.38
2022-08-09T03:37:56.706Z,91.17
2022-08-09T03:38:28.864Z,90.77
2022-08-09T03:39:28.673Z,91.78
2022-08-09T03:40:31.076Z,91.78
2022-08-09T03:41:29.802Z,91.78
2022-08-09T03:42:26.270Z,91.83
2022-08-09T03:43:25.053Z,91.68
2022-08-09T03:44:27.744Z,91.38
2022-08-09T03:46:03.858Z,91.52
2022-08-09T03:46:29.272Z,91.83
2022-08-09T03:47:25.007Z,91.78
2022-08-09T03:48:30.948Z,90.97
2022-08-09T03:49:25.982Z,91.58
2022-08-09T03:50:28.036Z,91.78
2022-08-09T03:51:54.123Z,91.72
2022-08-09T03:52:25.948Z,91.72
2022-08-09T03:53:32.227Z,91.72
2022-08-09T03:54:29.354Z,91.83
2022-08-09T03:55:24.915Z,91.31
2022-08-09T03:56:24.904Z,91.42
2022-08-09T03:57:24.896Z,90.91
2022-08-09T03:58:24.881Z,91.22
2022-08-09T03:59:42.849Z,90.91
2022-08-09T04:00:25.934Z,91.11
2022-08-09T04:01:25.094Z,90.91
2022-08-09T04:02:26.953Z,91.01
2022-08-09T04:03:45.886Z,91.62
2022-08-09T04:04:25.812Z,91.93
2022-08-09T04:05:27.547Z,91.62
2022-08-09T04:06:24.824Z,91.52
2022-08-09T04:07:33.773Z,91.01
2022-08-09T04:08:28.929Z,90.97
2022-08-09T04:09:47.823Z,90.97
2022-08-09T04:10:29.117Z,91.48
2022-08-09T04:11:25.033Z,91.68
2022-08-09T04:12:40.313Z,91.48
2022-08-09T04:13:45.123Z,91.58
2022-08-09T04:14:52.891Z,91.78
2022-08-09T04:15:40.416Z,91.68
2022-08-09T04:16:25.778Z,91.07
2022-08-09T04:17:24.668Z,91.17
2022-08-09T04:18:24.868Z,91.38
2022-08-09T04:19:42.600Z,91.17
2022-08-09T04:20:25.917Z,90.97
2022-08-09T04:21:24.644Z,90.77
2022-08-09T04:22:24.659Z,91.07
2022-08-09T04:23:25.863Z,91.07
2022-08-09T04:24:24.590Z,91.17
2022-08-09T04:25:24.582Z,90.86
2022-08-09T04:26:24.824Z,91.78
2022-08-09T04:27:25.566Z,91.68
2022-08-09T04:28:33.525Z,91.27
2022-08-09T04:29:25.536Z,91.27
2022-08-09T04:30:26.247Z,91.48
2022-08-09T04:31:37.347Z,91.78
2022-08-09T04:32:37.090Z,91.78
2022-08-09T04:33:28.699Z,90.97
2022-08-09T04:34:31.818Z,90.86
2022-08-09T04:35:25.468Z,91.78
2022-08-09T04:36:24.692Z,91.78
2022-08-09T04:37:24.465Z,91.88
2022-08-09T04:38:25.430Z,90.97
2022-08-09T04:39:24.515Z,91.58
2022-08-09T04:40:36.226Z,91.78
2022-08-09T04:41:33.260Z,91.48
2022-08-09T04:42:25.414Z,91.03
2022-08-09T04:43:25.352Z,91.58
2022-08-09T04:44:24.370Z,91.84
2022-08-09T04:45:24.359Z,91.64
2022-08-09T04:46:36.659Z,91.99
2022-08-09T04:47:25.340Z,91.88
2022-08-09T04:48:33.418Z,91.68
2022-08-09T04:49:40.549Z,91.53
2022-08-09T04:50:25.302Z,91.78
2022-08-09T04:51:25.287Z,92.19
2022-08-09T04:52:26.631Z,92.09
2022-08-09T04:53:24.270Z,91.74
2022-08-09T04:54:24.277Z,91.64
2022-08-09T04:55:24.247Z,91.33
2022-08-09T04:56:26.110Z,91.23
2022-08-09T04:57:25.080Z,91.33
2022-08-09T04:58:24.211Z,91.53
2022-08-09T04:59:24.204Z,91.13
2022-08-09T05:00:25.185Z,90.83
2022-08-09T05:01:25.204Z,90.78
2022-08-09T05:02:24.196Z,91.03
2022-08-09T05:03:41.034Z,91.23
2022-08-09T05:04:30.780Z,90.58
2022-08-09T05:05:32.253Z,90.68
2022-08-09T05:06:27.874Z,90.48
2022-08-09T05:07:24.136Z,90.58
2022-08-09T05:08:24.102Z,91.19
2022-08-09T05:09:24.090Z,91.29
2022-08-09T05:10:24.077Z,90.27
2022-08-09T05:11:24.066Z,90.68
2022-08-09T05:12:25.121Z,90.27
2022-08-09T05:13:24.046Z,90.23
2022-08-09T05:14:24.033Z,90.03
2022-08-09T05:15:38.686Z,89.83
2022-08-09T05:16:31.724Z,90.44
2022-08-09T05:18:37.737Z,90.13
2022-08-09T05:18:38.910Z,90.64
2022-08-09T05:19:26.160Z,89.68
2022-08-09T05:20:24.966Z,89.42
2022-08-09T05:21:30.037Z,89.17
2022-08-09T05:22:35.971Z,89.13
2022-08-09T05:23:54.697Z,88.62
2022-08-09T05:24:24.927Z,88.93
2022-08-09T05:25:23.915Z,88.93
2022-08-09T05:26:36.134Z,88.42
2022-08-09T05:27:24.888Z,88.48
2022-08-09T05:28:24.046Z,88.07
2022-08-09T05:29:24.226Z,87.87
2022-08-09T05:30:24.853Z,87.67
2022-08-09T05:31:44.979Z,87.87
2022-08-09T05:32:24.914Z,87.77
2022-08-09T05:33:26.394Z,87.73
2022-08-09T05:34:29.995Z,87.73
2022-08-09T05:35:24.798Z,87.73
2022-08-09T05:36:26.424Z,87.32
2022-08-09T05:37:24.779Z,87.32
2022-08-09T05:38:23.790Z,87.02
2022-08-09T05:39:28.862Z,87.12
2022-08-09T05:40:24.744Z,87.48
2022-08-09T05:41:23.730Z,87.59
2022-08-09T05:42:28.688Z,87.08
2022-08-09T05:43:24.731Z,86.47
2022-08-09T05:44:28.888Z,86.47
2022-08-09T05:45:24.832Z,86.68
2022-08-09T05:46:23.674Z,86.13
2022-08-09T05:47:23.788Z,85.82
2022-08-09T05:48:32.736Z,85.72
2022-08-09T05:50:23.497Z,85.68
2022-08-09T05:50:50.812Z,85.13
2022-08-09T05:51:42.963Z,84.93
2022-08-09T05:52:30.761Z,84.69
2022-08-09T05:53:33.313Z,84.69
2022-08-09T05:54:24.588Z,83.33
2022-08-09T05:55:24.278Z,83.33
2022-08-09T05:56:25.948Z,82.79
2022-08-09T05:57:25.042Z,82.14
2022-08-09T05:58:24.543Z,81.70
2022-08-09T05:59:23.531Z,81.26
2022-08-09T06:00:23.552Z,79.71
2022-08-09T06:01:23.513Z,78.72
2022-08-09T06:02:23.579Z,78.28
2022-08-09T06:03:23.533Z,77.14
2022-08-09T06:04:23.743Z,76.70
2022-08-09T06:05:50.159Z,75.46
2022-08-09T06:06:24.453Z,74.21
2022-08-09T06:07:23.463Z,74.52
2022-08-09T06:08:24.460Z,74.21
2022-08-09T06:09:53.852Z,74.58
2022-08-09T06:10:24.409Z,74.48
2022-08-09T06:11:40.628Z,73.68
2022-08-09T06:12:26.350Z,72.57
2022-08-09T06:13:23.375Z,71.83
2022-08-09T06:14:23.364Z,71.63
2022-08-09T06:15:23.375Z,72.00
2022-08-09T06:16:23.349Z,71.63
2022-08-09T06:17:23.353Z,71.23
2022-08-09T06:18:24.985Z,72.03
2022-08-09T06:19:23.310Z,71.73
2022-08-09T06:20:23.298Z,71.53
2022-08-09T06:21:23.286Z,71.47
2022-08-09T06:22:29.053Z,73.07
2022-08-09T06:23:24.262Z,73.07
2022-08-09T06:24:24.254Z,72.67
2022-08-09T06:25:23.246Z,72.27
2022-08-09T06:26:28.448Z,72.47
2022-08-09T06:27:24.242Z,71.87
2022-08-09T06:28:31.868Z,74.88
2022-08-09T06:29:24.193Z,72.87
2022-08-09T06:30:23.193Z,73.00
2022-08-09T06:31:31.477Z,72.87
2022-08-09T06:33:00.559Z,73.18
2022-08-09T06:33:40.684Z,72.57
2022-08-09T06:34:26.359Z,72.57
2022-08-09T06:35:55.849Z,72.81
2022-08-09T06:36:27.296Z,73.07
2022-08-09T06:37:24.106Z,72.71
2022-08-09T06:38:31.989Z,74.38
2022-08-09T06:39:24.125Z,73.14
2022-08-09T06:40:24.643Z,72.00
2022-08-09T06:41:23.067Z,72.50
2022-08-09T06:42:24.335Z,71.97
2022-08-09T06:43:23.043Z,71.70
2022-08-09T06:44:23.056Z,71.26
2022-08-09T06:46:06.519Z,71.70
2022-08-09T06:46:39.821Z,71.36
2022-08-09T06:47:24.091Z,72.47
2022-08-09T06:48:26.124Z,71.77
2022-08-09T06:49:29.341Z,71.03
2022-08-09T06:50:24.028Z,70.26
2022-08-09T06:51:22.954Z,70.73
2022-08-09T06:52:23.644Z,71.03
2022-08-09T06:53:22.952Z,70.73
2022-08-09T06:54:22.951Z,71.09
2022-08-09T06:55:23.980Z,69.79
2022-08-09T06:56:30.527Z,70.39
2022-08-09T06:57:25.812Z,70.26
2022-08-09T07:00:46.630Z,70.26
2022-08-09T07:00:48.873Z,70.06
2022-08-09T07:00:52.037Z,70.96
2022-08-09T07:01:24.115Z,69.96
2022-08-09T07:02:31.100Z,71.23
2022-08-09T07:03:27.906Z,70.83
2022-08-09T07:04:22.814Z,69.53
2022-08-09T07:05:23.094Z,69.09
2022-08-09T07:06:22.791Z,68.59
2022-08-09T07:07:58.714Z,68.62
2022-08-09T07:08:24.759Z,68.09
2022-08-09T07:09:55.369Z,68.99
2022-08-09T07:10:29.656Z,68.32
2022-08-09T07:11:25.565Z,69.02
2022-08-09T07:12:22.722Z,69.53
2022-08-09T07:13:28.160Z,69.29
2022-08-09T07:14:26.377Z,68.29
2022-08-09T07:15:53.967Z,67.76
2022-08-09T07:16:43.462Z,68.05
2022-08-09T07:17:23.662Z,66.96
2022-08-09T07:18:22.676Z,67.22
2022-08-09T07:19:23.544Z,68.13
2022-08-09T07:20:22.637Z,68.19
2022-08-09T07:21:22.643Z,67.79
2022-08-09T07:22:34.879Z,67.66
2022-08-09T07:23:23.621Z,66.46
2022-08-09T07:24:22.595Z,65.93
2022-08-09T07:25:23.577Z,65.53
2022-08-09T07:26:22.568Z,65.60
2022-08-09T07:27:26.783Z,66.00
2022-08-09T07:28:26.178Z,65.23
2022-08-09T07:29:22.534Z,65.63
2022-08-09T07:30:24.358Z,65.50
2022-08-09T07:31:24.024Z,64.40
2022-08-09T07:32:22.986Z,63.80
2022-08-09T07:33:23.491Z,64.50
2022-08-09T07:34:22.508Z,63.83
2022-08-09T07:35:22.571Z,65.13
2022-08-09T07:36:22.458Z,66.53
2022-08-09T07:37:22.453Z,64.70
2022-08-09T07:38:23.171Z,65.14
2022-08-09T07:39:41.460Z,63.04
2022-08-09T07:40:26.841Z,62.71
2022-08-09T07:41:22.401Z,61.85
2022-08-09T07:42:22.392Z,62.94
2022-08-09T07:43:29.017Z,62.64
2022-08-09T07:44:23.990Z,62.48
2022-08-09T07:45:37.042Z,62.90
2022-08-09T07:46:23.347Z,63.60
2022-08-09T07:47:23.193Z,63.77
2022-08-09T07:48:30.103Z,62.90
2022-08-09T07:49:23.380Z,64.47
2022-08-09T07:50:34.748Z,63.54
2022-08-09T07:52:03.550Z,63.81
2022-08-09T07:52:24.148Z,62.31
2022-08-09T07:54:01.571Z,62.48
2022-08-09T07:54:27.982Z,62.81
2022-08-09T07:55:23.246Z,62.15
2022-08-09T07:56:26.841Z,63.77
2022-08-09T07:57:22.230Z,64.07
2022-08-09T07:58:26.321Z,63.74
2022-08-09T07:59:25.181Z,62.81
2022-08-09T08:00:35.869Z,62.78
2022-08-09T08:01:25.439Z,61.79
2022-08-09T08:02:23.228Z,60.99
2022-08-09T08:03:22.160Z,61.82
2022-08-09T08:04:31.830Z,62.65
2022-08-09T08:05:23.158Z,62.72
2022-08-09T08:06:22.131Z,61.07
2022-08-09T08:08:45.215Z,60.00
2022-08-09T08:09:00.631Z,59.61
2022-08-09T08:09:39.783Z,59.51
2022-08-09T08:10:23.118Z,59.91
2022-08-09T08:12:10.670Z,60.60
2022-08-09T08:12:24.899Z,59.38
2022-08-09T08:13:23.073Z,59.58
2022-08-09T08:14:24.190Z,59.25
2022-08-09T08:15:23.950Z,59.55
2022-08-09T08:16:29.511Z,59.65
2022-08-09T08:17:35.081Z,59.45
2022-08-09T08:18:22.998Z,59.05
2022-08-09T08:19:22.010Z,58.53
2022-08-09T08:20:29.420Z,57.86
2022-08-09T08:21:23.012Z,57.83
2022-08-09T08:22:24.097Z,58.16
2022-08-09T08:23:22.941Z,58.45
2022-08-09T08:24:21.956Z,58.06
2022-08-09T08:25:21.924Z,58.75
2022-08-09T08:26:26.726Z,58.03
2022-08-09T08:27:22.937Z,58.13
2022-08-09T08:28:26.147Z,57.73
2022-08-09T08:29:27.482Z,58.00
2022-08-09T08:30:22.869Z,57.31
2022-08-09T08:31:21.882Z,56.29
2022-08-09T08:32:28.885Z,56.68
2022-08-09T08:33:23.775Z,57.38
2022-08-09T08:34:25.447Z,56.38
2022-08-09T08:35:22.162Z,58.43
2022-08-09T08:36:28.310Z,57.60
2022-08-09T08:37:22.796Z,56.21
2022-08-09T08:38:21.786Z,56.71
2022-08-09T08:39:22.033Z,56.49
2022-08-09T08:40:21.782Z,55.99
2022-08-09T08:41:21.751Z,56.19
2022-08-09T08:42:31.680Z,56.78
2022-08-09T08:43:23.172Z,55.19
2022-08-09T08:44:27.237Z,55.17
2022-08-09T08:45:37.732Z,56.43
2022-08-09T08:46:32.908Z,55.57
2022-08-09T08:47:22.709Z,56.46
2022-08-09T08:48:21.678Z,55.17
2022-08-09T08:49:22.561Z,56.16
2022-08-09T08:50:22.656Z,55.17
2022-08-09T08:51:22.483Z,56.19
2022-08-09T08:52:57.566Z,55.47
2022-08-09T08:53:22.622Z,57.03
2022-08-09T08:54:28.124Z,56.11
2022-08-09T08:55:23.329Z,54.92
2022-08-09T08:56:28.067Z,55.29
2022-08-09T08:57:22.585Z,54.57
2022-08-09T08:58:27.141Z,53.78
2022-08-09T08:59:22.556Z,53.78
2022-08-09T09:00:27.928Z,54.35
2022-08-09T09:01:24.961Z,52.83
2022-08-09T09:02:31.397Z,52.96
2022-08-09T09:03:22.795Z,53.95
2022-08-09T09:04:27.024Z,52.64
2022-08-09T09:05:22.689Z,51.47
2022-08-09T09:06:22.485Z,52.91
2022-08-09T09:07:21.494Z,54.30
2022-08-09T09:08:30.224Z,54.54
2022-08-09T09:09:50.235Z,53.48
2022-08-09T09:10:22.438Z,54.27
2022-08-09T09:11:21.430Z,54.74
2022-08-09T09:12:21.788Z,54.37
2022-08-09T09:13:21.427Z,53.88
2022-08-09T09:14:21.398Z,52.96
2022-08-09T09:15:27.913Z,52.83
2022-08-09T09:16:31.259Z,52.93
2022-08-09T09:17:22.364Z,52.41
2022-08-09T09:18:21.357Z,53.38
2022-08-09T09:19:37.789Z,51.30
2022-08-09T09:20:22.353Z,51.65
2022-08-09T09:21:25.991Z,53.95
2022-08-09T09:22:28.688Z,53.23
2022-08-09T09:23:22.298Z,51.52
2022-08-09T09:24:22.288Z,51.50
2022-08-09T09:26:01.238Z,51.40
2022-08-09T09:26:22.275Z,52.17
2022-08-09T09:28:03.018Z,51.70
2022-08-09T09:28:39.282Z,51.57
2022-08-09T09:29:22.236Z,50.98
2022-08-09T09:30:39.987Z,50.98
2022-08-09T09:32:03.448Z,52.51
2022-08-09T09:32:34.373Z,50.31
2022-08-09T09:33:23.780Z,49.05
2022-08-09T09:34:21.185Z,50.29
2022-08-09T09:35:21.200Z,49.69
2022-08-09T09:36:22.055Z,49.62
2022-08-09T09:37:21.151Z,46.75
2022-08-09T09:38:27.812Z,46.33
2022-08-09T09:39:22.226Z,46.69
2022-08-09T09:40:21.195Z,46.19
2022-08-09T09:41:21.127Z,48.24
2022-08-09T09:42:21.104Z,46.84
2022-08-09T09:43:21.089Z,44.15
2022-08-09T09:44:25.923Z,42.46
2022-08-09T09:45:25.867Z,43.13
2022-08-09T09:47:22.044Z,42.04
2022-08-09T09:48:21.036Z,42.81
2022-08-09T09:49:31.642Z,41.83
2022-08-09T09:50:23.200Z,42.34
2022-08-09T09:51:38.074Z,44.40
2022-08-09T09:52:36.240Z,43.40
2022-08-09T09:53:43.863Z,43.57
2022-08-09T09:54:22.001Z,43.99
2022-08-09T09:55:27.953Z,43.40
2022-08-09T09:56:31.566Z,44.48
2022-08-09T09:58:00.961Z,44.29
2022-08-09T09:58:21.933Z,44.78
2022-08-09T09:59:20.918Z,41.61
2022-08-09T10:00:22.049Z,41.80
2022-08-09T10:01:31.478Z,44.12
2022-08-09T10:02:21.897Z,43.24
2022-08-09T10:03:21.122Z,42.00
2022-08-09T10:04:23.027Z,42.40
2022-08-09T10:05:21.875Z,41.43
2022-08-09T10:06:21.865Z,43.23
2022-08-09T10:07:20.837Z,41.94
2022-08-09T10:08:27.698Z,42.36
2022-08-09T10:09:23.848Z,42.83
2022-08-09T10:10:20.801Z,42.93
2022-08-09T10:12:00.743Z,43.20
2022-08-09T10:12:28.068Z,43.10
2022-08-09T10:13:24.814Z,43.52
2022-08-09T10:14:27.495Z,42.65
2022-08-09T10:15:50.677Z,43.17
2022-08-09T10:16:57.649Z,43.31
2022-08-09T10:17:39.294Z,44.59
2022-08-09T10:18:21.717Z,43.98
2022-08-09T10:19:20.730Z,44.57
2022-08-09T10:20:31.975Z,41.22
2022-08-09T10:21:21.687Z,42.30
2022-08-09T10:22:29.324Z,42.77
2022-08-09T10:23:21.967Z,43.34
2022-08-09T10:24:25.667Z,44.55
2022-08-09T10:25:21.749Z,43.07
2022-08-09T10:26:20.635Z,43.24
2022-08-09T10:27:24.989Z,43.96
2022-08-09T10:28:21.666Z,45.04
2022-08-09T10:29:32.781Z,44.74
2022-08-09T10:32:38.697Z,45.56
2022-08-09T10:34:07.655Z,44.37
2022-08-09T10:34:33.560Z,45.06
2022-08-09T10:35:21.537Z,44.18
2022-08-09T10:36:20.565Z,44.37
2022-08-09T10:37:20.519Z,44.49
2022-08-09T10:38:34.456Z,46.25
2022-08-09T10:39:21.567Z,45.24
2022-08-09T10:40:33.322Z,46.47
2022-08-09T10:41:21.474Z,45.07
2022-08-09T10:42:20.468Z,43.13
2022-08-09T10:43:21.451Z,44.60
2022-08-09T10:44:21.948Z,44.01
2022-08-09T10:45:20.543Z,44.11
2022-08-09T10:46:25.191Z,44.53
2022-08-09T10:48:12.266Z,43.13
2022-08-09T10:48:30.602Z,43.32
2022-08-09T10:49:21.426Z,43.24
2022-08-09T10:50:21.035Z,43.52
2022-08-09T10:51:21.371Z,44.51
2022-08-09T10:52:21.358Z,42.14
2022-08-09T10:53:21.200Z,42.65
2022-08-09T10:54:20.338Z,42.83
2022-08-09T10:55:20.346Z,43.13
2022-08-09T10:56:23.016Z,42.54
2022-08-09T10:57:20.330Z,42.46
2022-08-09T10:58:25.441Z,41.17
2022-08-09T10:59:21.286Z,41.06
2022-08-09T11:00:20.271Z,41.94
2022-08-09T11:03:11.855Z,41.27
2022-08-09T11:03:15.166Z,40.01
2022-08-09T11:03:50.263Z,41.89
2022-08-09T11:04:31.756Z,41.96
2022-08-09T11:05:25.043Z,42.16
2022-08-09T11:06:22.970Z,41.96
2022-08-09T11:07:20.200Z,42.46
2022-08-09T11:08:33.323Z,43.15
2022-08-09T11:09:21.180Z,42.07
2022-08-09T11:10:20.336Z,41.75
2022-08-09T11:11:21.350Z,41.55
2022-08-09T11:12:20.342Z,42.54
2022-08-09T11:13:50.660Z,42.41
2022-08-09T11:14:28.458Z,42.24
2022-08-09T11:15:23.775Z,41.17
2022-08-09T11:16:35.108Z,41.94
2022-08-09T11:17:21.096Z,40.96
2022-08-09T11:18:20.082Z,43.03
2022-08-09T11:19:20.074Z,44.98
2022-08-09T11:20:23.022Z,42.77
2022-08-09T11:21:20.094Z,41.90
2022-08-09T11:22:25.670Z,41.75
2022-08-09T11:23:23.991Z,41.86
2022-08-09T11:24:21.020Z,41.63
2022-08-09T11:25:25.797Z,43.33
2022-08-09T11:26:21.048Z,43.55
2022-08-09T11:27:52.901Z,43.25
2022-08-09T11:28:27.715Z,43.45
2022-08-09T11:30:06.265Z,44.12
2022-08-09T11:30:33.229Z,43.13
2022-08-09T11:31:33.916Z,44.00
2022-08-09T11:32:20.934Z,42.99
2022-08-09T11:33:19.925Z,43.29
2022-08-09T11:34:19.917Z,43.13
2022-08-09T11:35:23.821Z,43.41
2022-08-09T11:36:30.388Z,43.29
2022-08-09T11:37:20.899Z,43.19
2022-08-09T11:38:22.128Z,42.99
2022-08-09T11:39:19.911Z,43.38
2022-08-09T11:40:19.853Z,43.29
2022-08-09T11:41:19.870Z,43.19
2022-08-09T11:42:19.827Z,42.61
2022-08-09T11:43:19.847Z,43.19
2022-08-09T11:44:19.814Z,43.11
2022-08-09T11:45:19.822Z,43.70
2022-08-09T11:46:32.814Z,43.33
2022-08-09T11:47:20.784Z,42.64
2022-08-09T11:48:25.965Z,43.23
2022-08-09T11:49:28.188Z,43.51
2022-08-09T11:50:56.316Z,44.76
2022-08-09T11:52:49.559Z,43.31
2022-08-09T11:52:56.727Z,44.22
2022-08-09T11:54:01.375Z,43.17
2022-08-09T11:54:28.264Z,44.28
2022-08-09T11:55:34.703Z,45.17
2022-08-09T11:56:20.687Z,45.27
2022-08-09T11:57:46.883Z,45.19
2022-08-09T11:58:30.408Z,45.09
2022-08-09T11:59:20.650Z,45.09
2022-08-09T12:00:24.617Z,45.01
2022-08-09T12:02:15.894Z,44.52
2022-08-09T12:02:37.401Z,45.21
2022-08-09T12:03:55.228Z,45.71
2022-08-09T12:04:28.697Z,45.12
2022-08-09T12:05:22.949Z,46.20
2022-08-09T12:06:24.837Z,45.12
2022-08-09T12:07:20.565Z,45.31
2022-08-09T12:08:21.643Z,45.07
2022-08-09T12:09:21.218Z,45.25
2022-08-09T12:10:39.259Z,44.85
2022-08-09T12:11:20.520Z,44.75
2022-08-09T12:12:31.803Z,44.16
2022-08-09T12:14:07.755Z,45.13
2022-08-09T12:15:03.625Z,43.15
2022-08-09T12:15:22.219Z,43.45
2022-08-09T12:16:37.798Z,43.55
2022-08-09T12:17:34.761Z,43.05
2022-08-09T12:18:25.989Z,43.55
2022-08-09T12:19:20.436Z,44.54
2022-08-09T12:20:22.215Z,43.27
2022-08-09T12:21:28.456Z,44.36
2022-08-09T12:22:20.408Z,44.46
2022-08-09T12:23:47.400Z,44.26
2022-08-09T12:24:20.385Z,44.24
2022-08-09T12:25:36.457Z,43.74
2022-08-09T12:26:26.260Z,43.57
2022-08-09T12:29:10.433Z,43.27
2022-08-09T12:29:13.979Z,43.35
2022-08-09T12:29:32.720Z,43.27
2022-08-09T12:30:36.333Z,43.47
2022-08-09T12:31:30.934Z,45.13
2022-08-09T12:32:20.301Z,44.34
2022-08-09T12:33:19.325Z,43.25
2022-08-09T12:34:19.489Z,43.35
2022-08-09T12:35:22.031Z,44.24
2022-08-09T12:36:31.265Z,44.32
2022-08-09T12:37:24.185Z,43.33
2022-08-09T12:38:29.767Z,43.23
2022-08-09T12:39:20.314Z,43.03
2022-08-09T12:40:19.287Z,42.82
2022-08-09T12:41:19.226Z,43.13
2022-08-09T12:42:19.230Z,43.11
2022-08-09T12:43:19.188Z,42.52
2022-08-09T12:44:19.177Z,40.35
2022-08-09T12:45:34.815Z,42.44
2022-08-09T12:46:20.147Z,42.46
2022-08-09T12:47:23.130Z,42.66
2022-08-09T12:48:27.955Z,43.35
2022-08-09T12:49:20.842Z,43.35
2022-08-09T12:50:19.709Z,42.26
2022-08-09T12:51:30.668Z,42.76
2022-08-09T12:52:20.084Z,43.43
2022-08-09T12:53:22.721Z,44.39
2022-08-09T12:54:20.065Z,42.89
2022-08-09T12:56:14.198Z,42.20